M I D A S
Marine Information and Data Acquisition System
Tripno 691 of the Zeeleeuw from 2004-04-29 07:42:40 to 2004-04-29 16:05:36
Back to CruiseResearch ActivitiesStationsMapUnderway DataData graphs

EquipmentUnitsComment
TimeDGPSUTC
LatitudeDGPSDM.mWGS84
LongitudeDGPSDM.mWGS84
HeadingGyrodeg 
SOGDGPSknotsSpeed over ground
COGDGPSdegCourse over ground
DepthEcho soundermeters200 kHz
Missing or incorrect values are displayed as -999
Navigation data collected by the RV Zeeleeuw from 2004-04-29 07:42:40 to 2004-04-29 16:05:36
Time Latitude Longitude Heading SOG COG Depth
2004-04-29 07:43:43 51°14.273 2°54.262 249.5 12.6 245 11.1
2004-04-29 07:44:43 51°14.182 2°53.962 248.4 12.5 243 10.9
2004-04-29 07:45:42 51°14.093 2°53.667 249.2 12.6 243 11.2
2004-04-29 07:46:42 51°14.003 2°53.365 248.8 12.6 245 11.4
2004-04-29 07:47:42 51°13.913 2°53.062 249.9 12.7 246 11.9
2004-04-29 07:48:42 51°13.825 2°52.757 250.5 12.6 245 12.2
2004-04-29 07:49:42 51°13.734 2°52.454 247.9 12.6 242 12.4
2004-04-29 07:50:42 51°13.639 2°52.155 248.2 12.6 242 12.5
2004-04-29 07:51:42 51°13.544 2°51.856 248.5 12.6 243 12.6
2004-04-29 07:52:43 51°13.446 2°51.554 247.4 12.6 240 12.8
2004-04-29 07:53:42 51°13.347 2°51.267 246.3 12.5 240 12.9
2004-04-29 07:54:42 51°13.249 2°50.972 246.5 12.6 241 13.1
2004-04-29 07:55:42 51°13.146 2°50.679 246.6 12.6 240 13.2
2004-04-29 07:56:42 51°13.045 2°50.384 247 12.6 241 13.3
2004-04-29 07:57:42 51°12.943 2°50.088 246.7 12.7 242 13.4
2004-04-29 07:58:42 51°12.845 2°49.791 246.7 12.7 242 13.6
2004-04-29 07:59:42 51°12.743 2°49.496 246 12.7 241 13.5
2004-04-29 08:00:42 51°12.645 2°49.195 247.2 12.8 242 13.7
2004-04-29 08:01:42 51°12.548 2°48.894 247.3 12.7 244 13.8
2004-04-29 08:02:42 51°12.457 2°48.588 249.8 12.8 245 14
2004-04-29 08:03:42 51°12.371 2°48.278 250 12.8 247 14.1
2004-04-29 08:04:42 51°12.285 2°47.967 249.6 12.9 246 14.3
2004-04-29 08:05:42 51°12.2 2°47.655 250.9 12.8 247 14.5
2004-04-29 08:06:43 51°12.114 2°47.336 250.4 13 247 14.5
2004-04-29 08:07:42 51°12.03 2°47.028 250.1 12.9 247 14.6
2004-04-29 08:08:42 51°11.945 2°46.715 250.5 12.9 247 14.7
2004-04-29 08:09:42 51°11.86 2°46.402 250.2 12.9 247 14.7
2004-04-29 08:10:42 51°11.776 2°46.086 251.6 12.9 248 14.6
2004-04-29 08:11:43 51°11.693 2°45.763 251.1 12.9 248 14.7
2004-04-29 08:12:42 51°11.613 2°45.451 250.9 12.9 247 14.6
2004-04-29 08:13:42 51°11.533 2°45.134 251.7 12.9 248 14.5
2004-04-29 08:14:42 51°11.452 2°44.817 251.1 12.9 248 14.4
2004-04-29 08:15:43 51°11.37 2°44.495 250.4 13 249 14.5
2004-04-29 08:16:40 51°11.294 2°44.196 250.9 12.9 246 14.4
2004-04-29 08:17:42 51°11.211 2°43.871 253.1 12.8 249 14.4
2004-04-29 08:18:42 51°11.134 2°43.552 252.4 12.9 249 14.3
2004-04-29 08:19:42 51°11.057 2°43.234 252.6 12.9 249 14.3
2004-04-29 08:20:43 51°10.978 2°42.909 252.4 12.9 249 14.3
2004-04-29 08:21:42 51°10.902 2°42.595 252.5 12.9 249 14.3
2004-04-29 08:22:42 51°10.823 2°42.277 251.5 12.9 249 14.2
2004-04-29 08:23:43 51°10.742 2°41.958 251.5 12.7 248 14.1
2004-04-29 08:24:42 51°10.663 2°41.652 251.1 12.7 249 14.1
2004-04-29 08:25:42 51°10.584 2°41.339 251.2 12.8 248 14.1
2004-04-29 08:26:43 51°10.507 2°41.018 251.3 12.8 248 14.1
2004-04-29 08:27:42 51°10.433 2°40.708 252.5 12.7 249 14.2
2004-04-29 08:28:43 51°10.359 2°40.385 252.5 12.8 250 14.3
2004-04-29 08:29:42 51°10.283 2°40.074 250.8 12.8 247 14.5
2004-04-29 08:30:42 51°10.204 2°39.76 251.1 12.9 247 14.8
2004-04-29 08:31:42 51°10.126 2°39.447 250 12.6 248 15
2004-04-29 08:32:42 51°10.047 2°39.138 252.3 12.7 250 15.4
2004-04-29 08:33:42 51°9.973 2°38.824 252 12.7 250 15.7
2004-04-29 08:34:42 51°9.899 2°38.51 252 12.7 250 15.9
2004-04-29 08:35:43 51°9.824 2°38.19 251.4 12.6 248 16.4
2004-04-29 08:36:43 51°9.745 2°37.878 250.4 12.7 248 16.7
2004-04-29 08:37:43 51°9.67 2°37.566 251.1 12.7 248 17.2
2004-04-29 08:38:42 51°9.588 2°37.26 248.9 12.8 246 17.2
2004-04-29 08:39:42 51°9.508 2°36.948 250.7 12.8 247 17.6
2004-04-29 08:40:43 51°9.424 2°36.63 250 12.7 248 17.6
2004-04-29 08:41:42 51°9.345 2°36.321 250.4 12.9 248 17.4
2004-04-29 08:42:42 51°9.263 2°36.007 250 12.8 247 17.6
2004-04-29 08:43:42 51°9.18 2°35.693 249 12.9 247 17.8
2004-04-29 08:44:43 51°9.093 2°35.377 249.5 12.8 245 17.8
2004-04-29 08:45:42 51°9.027 2°35.134 248.3 7 245 18.5
2004-04-29 08:46:43 51°8.99 2°35.029 238 2.1 226 18
2004-04-29 08:47:42 51°8.994 2°35.039 206.5 0.8 51 18.4
2004-04-29 08:48:43 51°9.001 2°35.056 197.3 0.7 58 -999
2004-04-29 08:49:42 51°9.002 2°35.069 197.7 0.6 122 5.5
2004-04-29 08:50:43 51°8.991 2°35.079 203.6 0.9 164 18.5
2004-04-29 08:51:42 51°8.971 2°35.078 214.1 1.5 193 18.2
2004-04-29 08:52:42 51°8.947 2°35.058 232.3 1.7 223 18.2
2004-04-29 08:53:42 51°8.931 2°35.019 254.4 1.8 252 18.4
2004-04-29 08:54:43 51°8.93 2°34.968 276.6 2 282 18.1
2004-04-29 08:55:42 51°8.941 2°34.918 285.4 2.1 290 17.9
2004-04-29 08:56:42 51°8.952 2°34.866 283.6 2 287 17.9
2004-04-29 08:57:42 51°8.959 2°34.813 276.4 2.1 278 18.2
2004-04-29 08:58:42 51°8.965 2°34.756 277.1 2.3 278 18.1
2004-04-29 08:59:43 51°8.97 2°34.694 272.5 2.3 276 18.1
2004-04-29 09:00:50 51°8.971 2°34.626 264.1 2.2 266 18.1
2004-04-29 09:01:49 51°8.967 2°34.57 258.6 2.2 262 17.7
2004-04-29 09:02:50 51°8.96 2°34.513 256.7 2.1 259 18
2004-04-29 09:03:50 51°8.952 2°34.457 254 2.2 256 17.4
2004-04-29 09:04:50 51°8.943 2°34.403 251.3 2.1 254 17.9
2004-04-29 09:05:50 51°8.932 2°34.349 248.8 2.1 247 17.4
2004-04-29 09:06:50 51°8.917 2°34.299 243.9 2.1 242 17.7
2004-04-29 09:07:50 51°8.899 2°34.249 241.5 2.2 240 17.9
2004-04-29 09:08:49 51°8.88 2°34.201 240.2 2.2 239 17.5
2004-04-29 09:09:50 51°8.86 2°34.152 239.6 2.2 238 17.6
2004-04-29 09:10:50 51°8.84 2°34.104 239.8 2.2 236 18.1
2004-04-29 09:11:50 51°8.822 2°34.054 244.4 2.2 243 18.1
2004-04-29 09:12:50 51°8.806 2°34.001 247.4 2.3 246 18
2004-04-29 09:13:50 51°8.79 2°33.947 245.3 2.3 243 18
2004-04-29 09:14:50 51°8.772 2°33.894 242.3 2.3 240 17.5
2004-04-29 09:15:50 51°8.753 2°33.845 239.5 2.2 236 17.8
2004-04-29 09:16:50 51°8.73 2°33.803 230.6 1.8 224 17.8
2004-04-29 09:17:48 51°8.71 2°33.782 220.7 1.3 207 17.7
2004-04-29 09:18:50 51°8.69 2°33.768 222.5 1.3 206 18
2004-04-29 09:19:49 51°8.675 2°33.743 246.8 1.4 247 17.6
2004-04-29 09:20:50 51°8.68 2°33.697 292.6 2.2 301 17.7
2004-04-29 09:21:50 51°8.718 2°33.669 349 3.1 357 17.9
2004-04-29 09:22:50 51°8.766 2°33.711 52.8 3.7 50 17.6
2004-04-29 09:23:50 51°8.793 2°33.792 73.7 3.3 66 17.4
2004-04-29 09:24:50 51°8.813 2°33.869 74 3.1 68 17.4
2004-04-29 09:25:50 51°8.832 2°33.945 74.5 3 68 17.8
2004-04-29 09:26:50 51°8.851 2°34.018 74.7 3 68 17.9
2004-04-29 09:27:50 51°8.869 2°34.096 74.8 3.2 69 17.4
2004-04-29 09:28:50 51°8.889 2°34.176 75.8 3.3 69 17.4
2004-04-29 09:29:50 51°8.907 2°34.259 77.1 3.3 71 17.4
2004-04-29 09:30:50 51°8.925 2°34.342 78.3 3.3 72 17.5
2004-04-29 09:31:50 51°8.942 2°34.425 79.2 3.2 73 17.2
2004-04-29 09:32:50 51°8.959 2°34.507 76.2 3.2 70 17.4
2004-04-29 09:33:50 51°8.978 2°34.586 71.8 3.2 67 18
2004-04-29 09:34:50 51°9 2°34.664 70.4 3.2 65 18
2004-04-29 09:35:50 51°9.023 2°34.743 71 3.3 66 17.9
2004-04-29 09:36:50 51°9.044 2°34.823 74.7 3.3 68 17.8
2004-04-29 09:37:50 51°9.062 2°34.905 76.2 3.3 71 18.4
2004-04-29 09:38:50 51°9.08 2°34.985 75.4 3.2 70 18.1
2004-04-29 09:39:50 51°9.098 2°35.064 76 3.2 70 18.1
2004-04-29 09:40:50 51°9.114 2°35.143 77.5 3.2 73 17.7
2004-04-29 09:41:50 51°9.129 2°35.224 79.1 3.2 75 17.6
2004-04-29 09:42:50 51°9.141 2°35.305 80.8 3.1 76 17.9
2004-04-29 09:43:50 51°9.151 2°35.386 81.3 3.1 78 18.2
2004-04-29 09:44:50 51°9.162 2°35.466 80.5 3.1 78 17.8
2004-04-29 09:45:50 51°9.174 2°35.546 78.3 3.1 76 17.5
2004-04-29 09:46:50 51°9.186 2°35.625 78.8 3.1 76 17.7
2004-04-29 09:47:50 51°9.198 2°35.705 79.6 3.2 76 17.9
2004-04-29 09:48:50 51°9.211 2°35.785 78.5 3.2 73 17.5
2004-04-29 09:49:50 51°9.229 2°35.864 75.6 3.2 69 17.6
2004-04-29 09:50:50 51°9.248 2°35.943 76.9 3.2 70 17.4
2004-04-29 09:51:50 51°9.265 2°36.024 78.9 3.2 72 17.1
2004-04-29 09:52:50 51°9.282 2°36.105 79.4 3.2 73 17.2
2004-04-29 09:53:50 51°9.296 2°36.183 80.6 3 74 17.3
2004-04-29 09:54:50 51°9.307 2°36.249 84.9 2.2 76 17.1
2004-04-29 09:55:50 51°9.315 2°36.3 86.3 1.9 74 17.2
2004-04-29 09:56:50 51°9.323 2°36.344 83.6 1.6 71 17.2
2004-04-29 09:57:50 51°9.331 2°36.382 81.2 1.4 71 17.1
2004-04-29 09:58:50 51°9.339 2°36.417 77.2 1.3 68 17.1
2004-04-29 09:59:50 51°9.373 2°36.482 39.9 5.3 35 17.2
2004-04-29 10:00:50 51°9.503 2°36.453 336.5 10.8 334 17.2
2004-04-29 10:01:50 51°9.701 2°36.301 338.9 13.7 334 18.2
2004-04-29 10:02:50 51°9.907 2°36.142 339.2 13.8 335 19.1
2004-04-29 10:03:50 51°10.116 2°35.987 339.8 13.9 336 16.9
2004-04-29 10:04:50 51°10.327 2°35.845 344.7 13.7 341 11.7
2004-04-29 10:05:50 51°10.555 2°35.828 15.4 13.9 12 11.6
2004-04-29 10:06:50 51°10.752 2°36.02 42.3 13.9 39 12.1
2004-04-29 10:07:50 51°10.917 2°36.274 52.2 13.8 48 12.5
2004-04-29 10:08:50 51°11.07 2°36.55 52.6 13.9 47 13.3
2004-04-29 10:09:48 51°11.217 2°36.818 54.3 13.9 49 13.8
2004-04-29 10:10:50 51°11.375 2°37.106 53.7 14 48 14.6
2004-04-29 10:11:50 51°11.528 2°37.386 54.1 14.1 49 14.6
2004-04-29 10:12:50 51°11.683 2°37.665 53.9 14 48 14.9
2004-04-29 10:13:50 51°11.837 2°37.943 54.3 14 48 14.9
2004-04-29 10:14:50 51°11.992 2°38.22 54.3 14.1 47 14.8
2004-04-29 10:15:50 51°12.149 2°38.497 54.2 14.1 48 14.7
2004-04-29 10:16:50 51°12.306 2°38.775 54.2 14 47 14.5
2004-04-29 10:17:50 51°12.462 2°39.052 54.3 14 48 14.3
2004-04-29 10:18:50 51°12.616 2°39.329 54.3 14 49 14.3
2004-04-29 10:19:50 51°12.763 2°39.616 57.6 14 52 13.4
2004-04-29 10:20:50 51°12.913 2°39.9 50.8 13.9 44 14.1
2004-04-29 10:21:50 51°13.073 2°40.17 54.3 14 49 14.6
2004-04-29 10:22:50 51°13.226 2°40.452 55.1 14 49 15
2004-04-29 10:23:50 51°13.374 2°40.738 57.9 14 52 15.6
2004-04-29 10:24:50 51°13.521 2°41.03 57.4 14.1 52 16.2
2004-04-29 10:25:50 51°13.667 2°41.324 57.4 14.2 52 17
2004-04-29 10:26:50 51°13.813 2°41.614 56.8 13.7 51 17.3
2004-04-29 10:27:50 51°13.918 2°41.824 58.1 9 53 17.8
2004-04-29 10:28:50 51°13.991 2°41.942 40.2 5 35 17.9
2004-04-29 10:29:50 51°14.037 2°41.977 21.7 2.7 22 18.1
2004-04-29 10:30:50 51°14.083 2°42.012 33.4 3.3 29 18.2
2004-04-29 10:31:50 51°14.124 2°42.069 52.2 3.2 47 18.2
2004-04-29 10:32:50 51°14.16 2°42.131 49.6 3.3 46 18.1
2004-04-29 10:33:50 51°14.202 2°42.199 52 3.7 48 18.1
2004-04-29 10:34:50 51°14.24 2°42.271 56.3 3.4 52 18.1
2004-04-29 10:35:50 51°14.274 2°42.338 54 3.2 50 18.1
2004-04-29 10:36:50 51°14.306 2°42.405 57 3.2 54 18.1
2004-04-29 10:37:50 51°14.337 2°42.47 55.1 3.1 52 18.2
2004-04-29 10:38:50 51°14.368 2°42.537 58 3.1 54 18.3
2004-04-29 10:39:50 51°14.398 2°42.604 56.6 3.2 53 18.4
2004-04-29 10:40:50 51°14.429 2°42.672 59.9 3.1 55 18.4
2004-04-29 10:41:48 51°14.458 2°42.74 60.2 3.2 57 18.5
2004-04-29 10:42:50 51°14.487 2°42.812 61.7 3.1 59 18.5
2004-04-29 10:43:50 51°14.514 2°42.885 66 3.2 62 18.5
2004-04-29 10:44:50 51°14.538 2°42.96 68 3.1 64 18.7
2004-04-29 10:45:50 51°14.561 2°43.036 67.3 3.2 64 18.9
2004-04-29 10:46:48 51°14.584 2°43.107 64.5 3.1 61 18.9
2004-04-29 10:47:50 51°14.61 2°43.179 62.6 3.1 59 18.8
2004-04-29 10:48:50 51°14.637 2°43.25 61.5 3.1 58 18.7
2004-04-29 10:49:50 51°14.663 2°43.322 63.9 3.1 61 18.5
2004-04-29 10:50:50 51°14.689 2°43.393 64.3 3.1 61 18.8
2004-04-29 10:51:50 51°14.713 2°43.466 65.6 3.1 62 18.9
2004-04-29 10:52:50 51°14.736 2°43.537 64.6 3 62 18.9
2004-04-29 10:53:50 51°14.76 2°43.606 63.1 3.1 59 18.9
2004-04-29 10:54:50 51°14.786 2°43.677 63.6 3 60 18.9
2004-04-29 10:55:50 51°14.81 2°43.748 64.7 3 62 18.8
2004-04-29 10:56:49 51°14.834 2°43.818 65.3 3 61 18.8
2004-04-29 10:57:50 51°14.858 2°43.89 63.8 3 61 18.8
2004-04-29 10:58:50 51°14.883 2°43.959 62.1 3 60 18.7
2004-04-29 10:59:50 51°14.908 2°44.029 62.4 3 60 18.7
2004-04-29 11:00:50 51°14.932 2°44.099 64.6 3 63 18.7
2004-04-29 11:01:50 51°14.955 2°44.169 64 2.9 61 18.7
2004-04-29 11:02:48 51°14.978 2°44.237 64.9 2.9 63 18.6
2004-04-29 11:03:50 51°14.997 2°44.307 75.7 2.2 74 18.5
2004-04-29 11:04:50 51°15.001 2°44.355 97.7 0.9 86 18.5
2004-04-29 11:05:50 51°15.001 2°44.366 109.5 0.4 94 18.4
2004-04-29 11:06:50 51°14.986 2°44.4 137.9 3.7 141 18.2
2004-04-29 11:07:50 51°14.933 2°44.426 183.6 3 178 17.7
2004-04-29 11:08:50 51°14.891 2°44.41 212.6 2.5 205 17.5
2004-04-29 11:09:50 51°14.859 2°44.372 229.6 2.3 221 17.3
2004-04-29 11:10:50 51°14.828 2°44.317 240 2.9 235 17.3
2004-04-29 11:11:50 51°14.805 2°44.25 251.4 2.9 246 17.2
2004-04-29 11:12:50 51°14.785 2°44.183 246.5 2.9 242 17.1
2004-04-29 11:13:50 51°14.76 2°44.118 241.5 2.9 235 17.2
2004-04-29 11:14:50 51°14.732 2°44.055 240.5 2.9 235 17.2
2004-04-29 11:15:50 51°14.706 2°43.989 243.9 3 239 16.9
2004-04-29 11:16:50 51°14.681 2°43.922 244.7 3 239 17.2
2004-04-29 11:17:50 51°14.656 2°43.854 245.6 2.9 241 17.2
2004-04-29 11:18:50 51°14.631 2°43.787 244.2 2.9 238 16.9
2004-04-29 11:19:50 51°14.605 2°43.722 243.8 2.9 238 17.2
2004-04-29 11:20:50 51°14.579 2°43.656 243.4 3 237 17.3
2004-04-29 11:21:50 51°14.552 2°43.589 244.3 3 238 17.1
2004-04-29 11:22:50 51°14.527 2°43.522 245.4 3 240 16.8
2004-04-29 11:23:50 51°14.502 2°43.454 245.9 3 239 17.2
2004-04-29 11:24:50 51°14.476 2°43.387 243.8 3 237 17.3
2004-04-29 11:25:50 51°14.449 2°43.32 243.8 3 237 17.2
2004-04-29 11:26:50 51°14.423 2°43.253 244 3 239 17.4
2004-04-29 11:27:50 51°14.397 2°43.186 244.5 3 238 17.4
2004-04-29 11:28:50 51°14.37 2°43.118 243.7 3 237 17.2
2004-04-29 11:29:48 51°14.343 2°43.052 244.4 3.1 238 17.2
2004-04-29 11:30:50 51°14.316 2°42.979 245.3 3.1 238 17.2
2004-04-29 11:31:50 51°14.29 2°42.909 244.2 3.1 239 17.1
2004-04-29 11:32:50 51°14.263 2°42.837 244.9 3.1 240 17.1
2004-04-29 11:33:50 51°14.236 2°42.766 242.5 3.1 235 17
2004-04-29 11:34:50 51°14.208 2°42.698 243.3 3.1 238 17.1
2004-04-29 11:35:50 51°14.18 2°42.627 244.7 3.1 240 17.1
2004-04-29 11:36:50 51°14.154 2°42.555 244.5 3.2 240 17
2004-04-29 11:37:50 51°14.127 2°42.483 243.7 3.2 240 17
2004-04-29 11:38:50 51°14.1 2°42.41 244.5 3.2 240 17
2004-04-29 11:39:50 51°14.073 2°42.338 246.6 3.1 242 16.9
2004-04-29 11:40:50 51°14.054 2°42.271 258.9 2.4 250 16.8
2004-04-29 11:41:50 51°14.044 2°42.219 266 1.9 255 16.9
2004-04-29 11:42:50 51°14.038 2°42.175 270.5 1.6 258 17
2004-04-29 11:43:50 51°14.037 2°42.057 276.4 6.5 268 17.2
2004-04-29 11:44:50 51°13.955 2°41.955 186.3 7.2 184 17.1
2004-04-29 11:45:50 51°13.89 2°42.093 94.5 7.4 84 16.3
2004-04-29 11:46:50 51°13.986 2°42.184 2.6 8 350 16.6
2004-04-29 11:47:50 51°14.111 2°41.975 309.1 13.3 301 17.3
2004-04-29 11:48:50 51°14.215 2°41.648 302.1 13.9 296 16.8
2004-04-29 11:49:50 51°14.319 2°41.318 302.1 13.9 297 14.5
2004-04-29 11:50:50 51°14.428 2°40.994 306.8 13.9 301 14
2004-04-29 11:51:50 51°14.552 2°40.682 308.4 13.9 303 13.4
2004-04-29 11:52:50 51°14.676 2°40.373 308.4 13.8 302 12.5
2004-04-29 11:53:50 51°14.799 2°40.061 306.9 13.9 301 13.5
2004-04-29 11:54:50 51°14.94 2°39.77 319.4 13.9 314 14.4
2004-04-29 11:55:50 51°15.074 2°39.472 301 14 295 16.9
2004-04-29 11:56:50 51°15.165 2°39.13 298.8 14 294 18.1
2004-04-29 11:57:50 51°15.265 2°38.795 305 14 300 18
2004-04-29 11:58:50 51°15.394 2°38.486 308.4 14 302 14.5
2004-04-29 11:59:50 51°15.507 2°38.16 304.9 14.1 299 11.3
2004-04-29 12:00:50 51°15.622 2°37.834 305.9 14.1 300 10.8
2004-04-29 12:01:50 51°15.738 2°37.505 304.7 14.1 299 10.6
2004-04-29 12:02:50 51°15.863 2°37.184 308.8 14.3 303 11.9
2004-04-29 12:03:50 51°16.04 2°36.969 348.1 13.4 343 20.3
2004-04-29 12:04:50 51°16.261 2°36.903 356.3 13.6 349 26.8
2004-04-29 12:05:50 51°16.432 2°36.85 358.5 8.3 352 26.9
2004-04-29 12:06:50 51°16.535 2°36.836 4.9 4.9 354 26.5
2004-04-29 12:07:50 51°16.593 2°36.811 346.2 2.2 333 26.5
2004-04-29 12:08:50 51°16.593 2°36.8 354.9 0.3 251 26.4
2004-04-29 12:09:59 51°16.606 2°36.79 11.4 2.2 359 -999
2004-04-29 12:10:59 51°16.653 2°36.804 26.4 2.9 17 26.7
2004-04-29 12:11:59 51°16.698 2°36.831 33.3 2.9 25 26.3
2004-04-29 12:12:59 51°16.737 2°36.865 38.2 2.7 30 26.5
2004-04-29 12:13:59 51°16.776 2°36.903 39.8 2.6 32 26.7
2004-04-29 12:15:06 51°16.817 2°36.94 39.1 2.7 31 27
2004-04-29 12:16:07 51°16.857 2°36.978 38.5 2.9 29 27.7
2004-04-29 12:17:06 51°16.897 2°37.016 40.6 2.8 32 28
2004-04-29 12:18:07 51°16.94 2°37.055 38.3 2.8 29 28.3
2004-04-29 12:19:07 51°16.981 2°37.093 37.1 2.8 28 28.5
2004-04-29 12:20:07 51°17.021 2°37.128 38.8 2.8 30 28
2004-04-29 12:21:07 51°17.061 2°37.169 40.3 2.8 34 27.2
2004-04-29 12:22:15 51°17.105 2°37.214 39.5 2.8 31 26.8
2004-04-29 12:23:15 51°17.144 2°37.254 39.4 2.8 33 27
2004-04-29 12:24:15 51°17.18 2°37.289 39.9 2.8 32 26.8
2004-04-29 12:25:15 51°17.22 2°37.331 38.1 2.7 32 26.7
2004-04-29 12:26:15 51°17.26 2°37.369 37.4 2.7 31 26.7
2004-04-29 12:27:15 51°17.298 2°37.406 39 2.7 31 26.7
2004-04-29 12:28:22 51°17.34 2°37.451 40.2 2.6 35 27.1
2004-04-29 12:29:22 51°17.378 2°37.49 38.9 2.8 34 26.8
2004-04-29 12:30:22 51°17.417 2°37.529 38.3 2.8 31 27.2
2004-04-29 12:31:22 51°17.457 2°37.568 38.6 2.8 31 27
2004-04-29 12:32:22 51°17.496 2°37.606 39.9 2.7 34 26.8
2004-04-29 12:33:22 51°17.534 2°37.646 39.8 2.7 32 27.3
2004-04-29 12:34:22 51°17.572 2°37.686 39.8 2.8 32 27
2004-04-29 12:35:22 51°17.61 2°37.725 40 2.7 33 27.2
2004-04-29 12:36:22 51°17.648 2°37.765 39.8 2.7 36 26.6
2004-04-29 12:37:22 51°17.685 2°37.806 39.9 2.7 35 27.1
2004-04-29 12:38:22 51°17.723 2°37.847 38.6 2.7 33 27
2004-04-29 12:39:22 51°17.761 2°37.887 39.1 2.7 34 26.9
2004-04-29 12:40:22 51°17.798 2°37.927 39.9 2.7 35 26.7
2004-04-29 12:41:26 51°17.837 2°37.968 38.7 2.6 33 26.6
2004-04-29 12:42:27 51°17.875 2°38.007 38.3 2.7 33 26.6
2004-04-29 12:43:27 51°17.912 2°38.046 39.3 2.7 33 26.8
2004-04-29 12:44:32 51°17.953 2°38.091 39.9 2.6 34 26.9
2004-04-29 12:45:32 51°17.988 2°38.129 40.6 2.5 35 26.7
2004-04-29 12:46:32 51°18.019 2°38.171 48.7 2.4 45 26.7
2004-04-29 12:47:37 51°18.039 2°38.212 58.7 1.6 51 26.3
2004-04-29 12:48:36 51°18.052 2°38.241 59.3 1.2 58 26.4
2004-04-29 12:49:36 51°18.074 2°38.318 76.1 5.3 74 26.5
2004-04-29 12:50:36 51°18.081 2°38.578 94.8 12.7 92 26.5
2004-04-29 12:51:36 51°18.072 2°38.927 97.9 13.3 94 26.4
2004-04-29 12:52:36 51°18.055 2°39.279 97.9 13.3 95 26.7
2004-04-29 12:53:36 51°18.04 2°39.63 96.9 13.3 93 24.9
2004-04-29 12:54:37 51°18.03 2°39.986 97 13.3 94 16
2004-04-29 12:55:37 51°18.018 2°40.335 96.5 13.1 94 17.6
2004-04-29 12:56:37 51°18.013 2°40.682 93.6 13 90 14.2
2004-04-29 12:57:40 51°18.009 2°41.046 94.6 13 92 17.4
2004-04-29 12:58:46 51°18.004 2°41.432 94.1 13.3 91 22.5
2004-04-29 12:59:46 51°18.001 2°41.784 93.2 13.2 90 23.6
2004-04-29 13:00:46 51°18 2°42.135 91.5 13.2 89 24.1
2004-04-29 13:01:43 51°18.001 2°42.47 92.1 13.3 90 23.7
2004-04-29 13:02:47 51°18.001 2°42.846 92.5 13.3 91 23.4
2004-04-29 13:03:47 51°18.005 2°43.198 91.6 13.3 88 20
2004-04-29 13:04:52 51°18.003 2°43.574 94.6 12.9 90 11.4
2004-04-29 13:05:52 51°18.003 2°43.917 92.8 12.9 86 12.2
2004-04-29 13:06:52 51°18.003 2°44.264 93.6 13.1 91 15.5
2004-04-29 13:07:56 51°18.003 2°44.63 93 11.9 90 18.2
2004-04-29 13:08:57 51°18.003 2°44.876 92.3 6.9 90 19
2004-04-29 13:09:57 51°18.01 2°45.002 79.7 3.2 81 19.1
2004-04-29 13:10:58 51°18.003 2°45.034 122.3 0.7 161 19.2
2004-04-29 13:11:56 51°17.997 2°45.026 135.9 0.5 216 19.2
2004-04-29 13:12:56 51°17.987 2°45.023 140.9 1.6 159 19
2004-04-29 13:13:58 51°17.922 2°45.067 159.6 4.3 163 18.6
2004-04-29 13:14:57 51°17.864 2°45.075 177.3 3.3 183 18.2
2004-04-29 13:15:56 51°17.811 2°45.061 192.3 3.3 196 17.9
2004-04-29 13:16:56 51°17.759 2°45.028 206.1 3.3 207 17.7
2004-04-29 13:17:58 51°17.711 2°44.98 216.7 3.3 215 17.4
2004-04-29 13:18:56 51°17.669 2°44.929 217.8 3.3 216 17.2
2004-04-29 13:19:57 51°17.624 2°44.877 216.8 3.3 217 17
2004-04-29 13:21:02 51°17.575 2°44.823 214.5 3.3 215 17
2004-04-29 13:22:02 51°17.529 2°44.775 213.9 3.3 213 17.2
2004-04-29 13:23:02 51°17.484 2°44.727 213.5 3.3 213 17.2
2004-04-29 13:24:02 51°17.438 2°44.679 214.2 3.3 213 16.6
2004-04-29 13:25:02 51°17.393 2°44.63 214.8 3.3 215 16.3
2004-04-29 13:26:02 51°17.348 2°44.581 214.9 3.3 215 15.9
2004-04-29 13:27:02 51°17.303 2°44.532 214.8 3.3 214 16
2004-04-29 13:28:02 51°17.257 2°44.482 215 3.3 214 15.9
2004-04-29 13:29:02 51°17.212 2°44.433 214.6 3.3 215 15.8
2004-04-29 13:30:02 51°17.166 2°44.385 213.8 3.3 212 16
2004-04-29 13:31:02 51°17.12 2°44.336 214.9 3.3 214 16
2004-04-29 13:32:02 51°17.075 2°44.286 214.9 3.3 213 15.8
2004-04-29 13:33:02 51°17.028 2°44.238 213.3 3.3 215 15.9
2004-04-29 13:34:02 51°16.982 2°44.192 213.9 3.3 212 15.7
2004-04-29 13:35:02 51°16.936 2°44.143 214.9 3.3 217 15.5
2004-04-29 13:36:02 51°16.89 2°44.095 214 3.3 213 15.2
2004-04-29 13:37:02 51°16.845 2°44.047 215 3.3 214 15.1
2004-04-29 13:38:02 51°16.8 2°43.997 215.5 3.3 214 14.6
2004-04-29 13:39:02 51°16.754 2°43.949 213.4 3.3 213 14.8
2004-04-29 13:40:02 51°16.707 2°43.902 212.6 3.4 215 14.9
2004-04-29 13:41:02 51°16.661 2°43.855 212.4 3.4 212 14.6
2004-04-29 13:42:02 51°16.614 2°43.808 214.2 3.3 214 14.4
2004-04-29 13:43:02 51°16.568 2°43.758 215.5 3.3 213 14.6
2004-04-29 13:44:02 51°16.523 2°43.708 215 3.3 213 14.5
2004-04-29 13:45:02 51°16.48 2°43.657 221.5 3.2 219 14.4
2004-04-29 13:46:02 51°16.446 2°43.608 229.5 2.6 222 14.3
2004-04-29 13:47:02 51°16.417 2°43.563 232.4 2.3 221 14.4
2004-04-29 13:48:02 51°16.392 2°43.522 234.4 2.1 220 14
2004-04-29 13:49:02 51°16.36 2°43.469 230 4.1 223 14.4
2004-04-29 13:50:02 51°16.285 2°43.427 179 5.1 178 14.2
2004-04-29 13:51:02 51°16.206 2°43.502 127 7.6 130 13.7
2004-04-29 13:52:02 51°16.085 2°43.754 126.8 13.2 128 11.9
2004-04-29 13:53:02 51°15.944 2°44.037 126.4 13.7 128 10.9
2004-04-29 13:54:02 51°15.807 2°44.327 126.4 13.7 127 11.4
2004-04-29 13:55:07 51°15.653 2°44.633 128.9 13.7 129 11.4
2004-04-29 13:56:07 51°15.515 2°44.921 127.2 13.9 127 14.8
2004-04-29 13:57:07 51°15.375 2°45.205 126.9 13.5 127 17.7
2004-04-29 13:58:12 51°15.226 2°45.512 127.7 13.6 129 15.7
2004-04-29 13:59:12 51°15.089 2°45.795 127.6 13.5 126 13.5
2004-04-29 14:00:12 51°14.954 2°46.074 127.2 13.3 128 10.8
2004-04-29 14:01:10 51°14.826 2°46.34 126.2 13 128 8.6
2004-04-29 14:02:15 51°14.676 2°46.641 124.4 13.6 127 11.7
2004-04-29 14:03:18 51°14.531 2°46.939 128 13.5 128 12
2004-04-29 14:04:19 51°14.393 2°47.222 128 13.1 128 9.4
2004-04-29 14:05:19 51°14.259 2°47.501 127.1 13.5 128 9.9
2004-04-29 14:06:20 51°14.132 2°47.749 124.7 9.1 128 11.2
2004-04-29 14:07:25 51°14.04 2°47.89 138.2 5.6 145 11.1
2004-04-29 14:08:24 51°13.976 2°47.935 147.1 2.7 163 11.5
2004-04-29 14:09:25 51°13.953 2°47.935 115.4 1.1 204 11.4
2004-04-29 14:10:26 51°13.941 2°47.935 90.7 1.2 115 11.5
2004-04-29 14:11:23 51°13.948 2°47.977 65.2 2.5 70 11.1
2004-04-29 14:12:25 51°13.96 2°48.039 71.4 2.3 78 11.2
2004-04-29 14:13:30 51°13.967 2°48.1 73.9 2.1 80 11.3
2004-04-29 14:14:36 51°13.975 2°48.16 68.9 2.1 73 11.4
2004-04-29 14:15:36 51°13.988 2°48.215 65.1 2.3 69 11.4
2004-04-29 14:16:36 51°14.004 2°48.272 65.2 2.4 64 11.3
2004-04-29 14:17:36 51°14.018 2°48.331 67.2 2.4 72 11.3
2004-04-29 14:18:36 51°14.031 2°48.39 67.2 2.3 67 11.2
2004-04-29 14:19:39 51°14.046 2°48.452 66.5 2.4 67 11.3
2004-04-29 14:20:39 51°14.06 2°48.511 66.9 2.4 70 11.4
2004-04-29 14:21:40 51°14.074 2°48.572 67 2.4 71 11.2
2004-04-29 14:22:45 51°14.09 2°48.635 65.7 2.5 72 11.3
2004-04-29 14:23:45 51°14.105 2°48.693 66.6 2.4 70 11.3
2004-04-29 14:24:46 51°14.119 2°48.754 67 2.4 70 11.4
2004-04-29 14:25:43 51°14.132 2°48.81 66.8 2.4 71 11
2004-04-29 14:26:50 51°14.148 2°48.875 66.9 2.3 65 11.5
2004-04-29 14:27:50 51°14.162 2°48.933 66.2 2.3 70 11.4
2004-04-29 14:28:48 51°14.175 2°48.988 65.9 2.3 65 11.3
2004-04-29 14:29:50 51°14.189 2°49.047 66.4 2.3 70 11.2
2004-04-29 14:30:50 51°14.203 2°49.104 66.1 2.3 69 11.2
2004-04-29 14:31:50 51°14.217 2°49.161 65.8 2.3 72 11.2
2004-04-29 14:32:50 51°14.231 2°49.217 65.6 2.3 71 11.3
2004-04-29 14:33:54 51°14.245 2°49.278 66.5 2.3 65 11.2
2004-04-29 14:34:55 51°14.259 2°49.337 66.9 2.3 69 11.2
2004-04-29 14:35:55 51°14.273 2°49.394 66 2.3 68 11.2
2004-04-29 14:36:54 51°14.287 2°49.449 65.1 2.3 66 11.1
2004-04-29 14:37:55 51°14.302 2°49.507 64.9 2.3 67 11.3
2004-04-29 14:38:54 51°14.316 2°49.562 64.7 2.4 68 11.3
2004-04-29 14:39:54 51°14.331 2°49.618 65.8 2.3 69 11.3
2004-04-29 14:40:55 51°14.345 2°49.677 68 2.3 69 11.3
2004-04-29 14:41:55 51°14.357 2°49.736 67 2.3 72 11.2
2004-04-29 14:42:55 51°14.371 2°49.793 65.7 2.3 69 11.2
2004-04-29 14:43:59 51°14.381 2°49.844 69.4 1.4 79 11.1
2004-04-29 14:45:00 51°14.384 2°49.872 65.3 0.8 82 11.1
2004-04-29 14:46:00 51°14.386 2°49.888 61.6 0.6 93 11.1
2004-04-29 14:47:00 51°14.381 2°49.931 104.6 2.6 124 10.9
2004-04-29 14:48:00 51°14.326 2°49.955 178.8 4.3 190 10.5
2004-04-29 14:49:00 51°14.271 2°49.892 231 3.7 232 10.3
2004-04-29 14:49:58 51°14.239 2°49.819 247.4 3.4 237 10.4
2004-04-29 14:50:58 51°14.212 2°49.734 258.1 3.7 248 10.3
2004-04-29 14:52:00 51°14.191 2°49.636 267 3.8 255 10.5
2004-04-29 14:53:00 51°14.174 2°49.54 267.1 3.8 253 10.6
2004-04-29 14:54:00 51°14.153 2°49.447 260.2 3.7 245 10.7
2004-04-29 14:55:00 51°14.128 2°49.358 254.1 3.7 244 10.6
2004-04-29 14:55:58 51°14.101 2°49.272 252.3 3.7 244 10.6
2004-04-29 14:57:00 51°14.072 2°49.18 254.7 3.7 244 10.7
2004-04-29 14:58:00 51°14.046 2°49.089 255.9 3.8 245 10.8
2004-04-29 14:58:59 51°14.02 2°49 255.5 3.8 243 10.8
2004-04-29 15:00:00 51°13.994 2°48.907 255.1 3.8 247 10.8
2004-04-29 15:00:59 51°13.968 2°48.818 254 3.8 241 10.9
2004-04-29 15:02:00 51°13.94 2°48.726 255 3.8 242 10.9
2004-04-29 15:03:00 51°13.913 2°48.635 255.4 3.8 244 10.9
2004-04-29 15:04:00 51°13.887 2°48.543 255.8 3.8 249 11
2004-04-29 15:05:00 51°13.86 2°48.451 255.3 3.8 248 11.1
2004-04-29 15:06:00 51°13.833 2°48.358 255.8 3.8 245 11.1
2004-04-29 15:07:00 51°13.807 2°48.266 255.5 3.8 247 11.2
2004-04-29 15:08:00 51°13.781 2°48.175 256.9 3.8 244 11.1
2004-04-29 15:09:00 51°13.755 2°48.084 255.6 3.7 248 11.1
2004-04-29 15:10:00 51°13.73 2°47.993 254.7 3.8 246 11.1
2004-04-29 15:11:00 51°13.703 2°47.904 254.8 3.8 241 11.1
2004-04-29 15:12:00 51°13.676 2°47.814 254.7 3.8 245 11.3
2004-04-29 15:13:00 51°13.65 2°47.724 255.4 3.7 245 11.1
2004-04-29 15:14:00 51°13.623 2°47.634 255.4 3.7 246 11.2
2004-04-29 15:15:00 51°13.598 2°47.544 257.5 3.7 246 11.4
2004-04-29 15:16:00 51°13.581 2°47.452 277.2 3.6 262 11
2004-04-29 15:16:59 51°13.582 2°47.361 303.5 3.4 281 11.1
2004-04-29 15:17:59 51°13.602 2°47.283 331.8 2.9 305 11.2
2004-04-29 15:18:59 51°13.635 2°47.239 2.8 2.4 336 11.2
2004-04-29 15:20:00 51°13.668 2°47.24 37.6 1.8 25 11.3
2004-04-29 15:20:59 51°13.687 2°47.277 60.7 1.9 59 11.2
2004-04-29 15:22:00 51°13.699 2°47.324 64.5 1.8 63 11.2
2004-04-29 15:22:59 51°13.708 2°47.355 58.8 0.9 66 11.4
2004-04-29 15:24:00 51°13.711 2°47.37 58.5 0.3 67 11.3
2004-04-29 15:25:00 51°13.724 2°47.415 65.9 3.1 68 11.4
2004-04-29 15:26:00 51°13.739 2°47.484 69.2 2.2 73 11.4
2004-04-29 15:27:00 51°13.748 2°47.526 61.4 1.3 69 11.5
2004-04-29 15:28:00 51°13.755 2°47.551 58 1.7 64 11.5
2004-04-29 15:29:00 51°13.789 2°47.704 74.9 9.9 74 11.6
2004-04-29 15:30:00 51°13.851 2°48.003 75.8 12.3 73 11.2
2004-04-29 15:31:00 51°13.905 2°48.321 77.4 12.4 75 11.1
2004-04-29 15:31:59 51°13.961 2°48.634 77 12.6 72 11
2004-04-29 15:33:00 51°14.012 2°48.96 76.9 12.5 76 10.7
2004-04-29 15:34:00 51°14.06 2°49.281 79.7 12.5 78 10.2
2004-04-29 15:35:00 51°14.104 2°49.604 79.4 12.5 78 9.7
2004-04-29 15:36:00 51°14.152 2°49.927 79.4 12.5 77 9.3
2004-04-29 15:37:00 51°14.197 2°50.25 79.4 12.5 78 9.2
2004-04-29 15:38:00 51°14.235 2°50.576 80.7 12.6 79 9
2004-04-29 15:39:00 51°14.28 2°50.9 79.7 12.5 77 8.9
2004-04-29 15:40:00 51°14.324 2°51.224 80.3 12.5 79 8.8
2004-04-29 15:41:00 51°14.369 2°51.549 79 12.5 76 8.6
2004-04-29 15:42:00 51°14.415 2°51.873 79.7 12.6 76 8.6
2004-04-29 15:43:00 51°14.458 2°52.2 81.5 12.8 79 8.8
2004-04-29 15:44:00 51°14.498 2°52.53 80.9 12.7 79 9.1
2004-04-29 15:45:00 51°14.533 2°52.862 84.1 12.6 81 8.9
2004-04-29 15:46:00 51°14.555 2°53.197 86 12.7 84 8.7
2004-04-29 15:47:00 51°14.575 2°53.532 85.8 12.8 86 9.1
2004-04-29 15:48:00 51°14.587 2°53.876 91.7 13.1 88 10.1
2004-04-29 15:49:00 51°14.569 2°54.221 103.1 13.2 104 10.9
2004-04-29 15:50:00 51°14.508 2°54.551 111.1 13.1 112 10.5
2004-04-29 15:51:00 51°14.416 2°54.856 120.2 12.5 119 10.4
2004-04-29 15:52:00 51°14.321 2°55.138 122 11.5 121 11
2004-04-29 15:53:00 51°14.216 2°55.334 140 8 137 11.2
2004-04-29 15:54:00 51°14.116 2°55.443 154.6 7.2 152 11.1
2004-04-29 15:55:00 51°14.006 2°55.518 160.6 7.2 157 10.5
2004-04-29 15:56:00 51°13.896 2°55.594 160.7 7.2 157 9.3
2004-04-29 15:57:00 51°13.785 2°55.674 154.2 7.5 149 9.8
2004-04-29 15:58:00 51°13.711 2°55.798 131 5.9 127 12.3
2004-04-29 15:59:00 51°13.663 2°55.905 127.9 4.5 124 9.5
2004-04-29 16:00:00 51°13.627 2°55.992 125.6 3.4 122 10
2004-04-29 16:01:00 51°13.605 2°56.061 114.9 2.3 113 9.3
2004-04-29 16:02:00 51°13.596 2°56.094 117.7 0.2 146 7.1
2004-04-29 16:03:04 51°13.596 2°56.095 119.4 0.4 278 5
2004-04-29 16:04:04 51°13.597 2°56.097 121.2 0.1 52 -999
2004-04-29 16:05:04 51°13.597 2°56.096 128.3   199 -999